Etusivu
METAR-TAF:

METAR-TAF

Lentoasemat :

Kuwait, Kuwait

Kuwaitin kansainvälinen lentoasema

Leveyspiiri: 29-13N, Pituuspiiri: 047-59E, korkeus merenpinnasta: 55 m

Tämänhetkinen sää

Tämä raportti tehtiin 39 minuuttia sitten, kello 14.00 UTC
Tuuli 16 kn pohjoisen/luoteesta
Lämpötila 47°C
Kosteus 9%
Ilmanpaine 995 hPa
Näkyvyys 10 km tai enemmän
ei pilviä alle 1500 m:ssä eikä cumulonimbus-pilviä

METAR: OKBK 271400Z 34016KT CAVOK 47/06 Q0995 NOSIG

Aika: 17:39 (14:39 UTC)

Sääennuste

Tämä raportti tehtiin 3 tuntia ja 54 minuuttia sitten, kello 10.45 UTC
Ennuste voimassa 27. päivästä klo 12 UTC - 28. päivään klo 18 UTC
Tuuli 12 kn pohjoisesta puuskistuen 25 kn:hen
Näkyvyys: 8000 m
selkeää

TAF: OKBK 271045Z 2712/2818 35012G25KT 8000 SKC

Säähavainnot ja -ennusteet yli 4000 lentoasemalta (METAR- ja TAF-raportit).

Käytössä olevat sääasemat on merkitty karttaan keltaisilla ja punaisilla pisteillä.

Aseta hiiri pisteen päälle nähdäksesi sääaseman nimen.

Klikkaa sitten nähdäksesi säähavainnot ja -ennusteet.

Kartan vaihtaminen: klikkaa mustalla rastilla varustettuja vihreitä pisteitä, niin voit zoomata sisään; viivalla varustettua vihreää pistettä, niin voit zoomata ulos tai vihreitä nuolia, niin pääset viereisille kartoille.


METAR-TAF: